Time;durP1;ratioP1;P1;durP2;ratioP2;P2;SDS_P1;SDS_P2;PMS_P1;PMS_P2;Temp;Humidity;BMP_temperature;BMP_pressure;BME280_temperature;BME280_humidity;BME280_pressure;Samples;Min_cycle;Max_cycle;Signal;HPM_P1;HPM_P2
2023/10/06 00:01:48;;;;;;;8.20;2.87;;;12.00;99.90;;;;;;5067044;28;20021;-73
2023/10/06 00:04:16;;;;;;;9.50;3.13;;;12.00;99.90;;;;;;5067198;28;20020;-73
2023/10/06 00:06:45;;;;;;;9.23;2.83;;;12.00;99.90;;;;;;5068588;28;20013;-73
2023/10/06 00:09:28;;;;;;;9.67;2.90;;;12.00;99.90;;;;;;5068712;28;20008;-74
2023/10/06 00:11:54;;;;;;;;;;;11.90;99.90;;;;;;5052991;28;20041;-73
2023/10/06 00:14:38;;;;;;;7.43;2.33;;;11.90;99.90;;;;;;5052186;28;19943;-73
2023/10/06 00:17:17;;;;;;;9.43;3.67;;;11.90;99.90;;;;;;5067363;28;20040;-72
2023/10/06 00:19:51;;;;;;;9.37;3.40;;;11.90;99.90;;;;;;5053571;28;20096;-73
2023/10/06 00:22:20;;;;;;;7.97;2.60;;;11.90;99.90;;;;;;5072828;28;20033;-72
2023/10/06 00:24:55;;;;;;;9.33;2.63;;;11.90;99.90;;;;;;5070706;28;20020;-72
2023/10/06 00:27:23;;;;;;;10.77;2.87;;;11.90;99.90;;;;;;5055532;28;20104;-72
2023/10/06 00:29:56;;;;;;;7.77;2.97;;;11.90;99.90;;;;;;5071787;28;20076;-73
2023/10/06 00:32:28;;;;;;;7.03;2.80;;;11.90;99.90;;;;;;5071528;28;20037;-73
2023/10/06 00:35:17;;;;;;;10.57;2.80;;;11.90;99.90;;;;;;5071466;28;20013;-73
2023/10/06 00:37:45;;;;;;;5.40;2.60;;;11.90;99.90;;;;;;5051972;28;20025;-72
2023/10/06 00:40:19;;;;;;;6.30;3.07;;;11.90;99.90;;;;;;5051404;28;20037;-73
2023/10/06 00:42:59;;;;;;;6.73;2.87;;;11.90;99.90;;;;;;5071633;28;20024;-74
2023/10/06 00:45:25;;;;;;;6.63;3.03;;;11.90;99.90;;;;;;5056516;28;20020;-73
2023/10/06 00:47:54;;;;;;;6.23;3.10;;;11.90;99.90;;;;;;5054715;28;20017;-73
2023/10/06 00:50:23;;;;;;;8.60;3.30;;;11.80;99.90;;;;;;5072173;28;20089;-72
2023/10/06 00:52:51;;;;;;;7.57;2.47;;;11.80;99.90;;;;;;5072446;28;20024;-73
2023/10/06 00:55:19;;;;;;;7.47;3.20;;;11.80;99.90;;;;;;5068976;28;20195;-73
2023/10/06 00:57:52;;;;;;;5.83;2.17;;;11.80;99.90;;;;;;5052069;28;20024;-73
2023/10/06 01:00:22;;;;;;;5.77;2.97;;;11.80;99.90;;;;;;5055093;28;20009;-73
2023/10/06 01:02:48;;;;;;;11.93;2.97;;;11.80;99.90;;;;;;5071667;28;20054;-72
2023/10/06 01:05:16;;;;;;;7.83;3.20;;;11.80;99.90;;;;;;5052592;28;20026;-72
2023/10/06 01:07:47;;;;;;;10.23;2.97;;;11.80;99.90;;;;;;5070505;28;20048;-73
2023/10/06 01:10:27;;;;;;;7.57;2.80;;;11.70;99.90;;;;;;5054151;28;20017;-73
2023/10/06 01:12:54;;;;;;;8.37;2.90;;;11.70;99.90;;;;;;5054518;28;20021;-72
2023/10/06 01:15:20;;;;;;;5.73;2.90;;;11.70;99.90;;;;;;5054009;28;20032;-73
2023/10/06 01:17:47;;;;;;;9.73;2.60;;;11.70;99.90;;;;;;5053390;28;20013;-72
2023/10/06 01:20:40;;;;;;;11.07;3.10;;;11.70;99.90;;;;;;5053194;28;20021;-72
2023/10/06 01:23:10;;;;;;;16.07;3.47;;;11.70;99.90;;;;;;5068782;28;20052;-73
2023/10/06 01:25:37;;;;;;;7.47;2.70;;;11.60;99.90;;;;;;5070064;28;20043;-73
2023/10/06 01:28:12;;;;;;;9.73;3.07;;;11.60;99.90;;;;;;5051523;28;20024;-73
2023/10/06 01:30:40;;;;;;;10.33;3.30;;;11.60;99.90;;;;;;5056184;28;20021;-73
2023/10/06 01:33:05;;;;;;;7.67;3.13;;;11.60;99.90;;;;;;5051931;28;20021;-73
2023/10/06 01:35:34;;;;;;;5.77;2.97;;;11.60;99.90;;;;;;5071002;28;20040;-73
2023/10/06 01:38:05;;;;;;;9.90;3.13;;;11.60;99.90;;;;;;5056179;28;20025;-73
2023/10/06 01:42:59;;;;;;;7.80;3.57;;;11.50;99.90;;;;;;5070388;28;20040;-72
2023/10/06 01:45:28;;;;;;;10.93;3.60;;;11.50;99.90;;;;;;5071808;28;20039;-73
2023/10/06 01:48:09;;;;;;;11.43;3.67;;;11.50;99.90;;;;;;5070465;28;20029;-75
2023/10/06 01:50:39;;;;;;;8.37;3.03;;;11.50;99.90;;;;;;5069633;28;20013;-73
2023/10/06 01:53:18;;;;;;;10.20;3.67;;;11.50;99.90;;;;;;5048782;28;20024;-73
2023/10/06 01:55:49;;;;;;;12.70;3.67;;;11.50;99.90;;;;;;5070403;28;20033;-75
2023/10/06 01:58:15;;;;;;;11.97;2.93;;;11.50;99.90;;;;;;5070367;28;20031;-74
2023/10/06 02:00:50;;;;;;;10.03;3.40;;;11.50;99.90;;;;;;5072114;28;20087;-72
2023/10/06 02:03:16;;;;;;;9.60;2.80;;;11.50;99.90;;;;;;5070153;28;20021;-73
2023/10/06 02:05:43;;;;;;;10.13;3.20;;;11.40;99.90;;;;;;5053661;28;20009;-72
2023/10/06 02:08:21;;;;;;;7.57;2.93;;;11.50;99.90;;;;;;5072335;28;20037;-74
2023/10/06 02:10:50;;;;;;;10.83;3.67;;;11.40;99.90;;;;;;5053324;28;20052;-73
2023/10/06 02:13:21;;;;;;;7.63;3.40;;;11.40;99.90;;;;;;5071160;28;20021;-73
2023/10/06 02:15:59;;;;;;;12.17;3.30;;;11.40;99.90;;;;;;5051340;28;20577;-72
2023/10/06 02:18:37;;;;;;;8.90;3.07;;;11.40;99.90;;;;;;5055316;28;20271;-73
2023/10/06 02:21:11;;;;;;;8.17;2.90;;;11.50;99.90;;;;;;5052772;28;20028;-72
2023/10/06 02:23:43;;;;;;;6.20;3.00;;;11.50;99.90;;;;;;5068268;28;20086;-72
2023/10/06 02:26:12;;;;;;;4.72;3.03;;;11.40;99.90;;;;;;5052922;28;20017;-72
2023/10/06 02:28:48;;;;;;;10.57;3.80;;;11.40;99.90;;;;;;5070170;28;20045;-72
2023/10/06 02:31:14;;;;;;;7.47;2.83;;;11.40;99.90;;;;;;5055313;28;20041;-73
2023/10/06 02:33:48;;;;;;;10.03;3.20;;;11.40;99.90;;;;;;5069283;28;20036;-72
2023/10/06 02:36:21;;;;;;;13.53;3.93;;;11.40;99.90;;;;;;5052169;28;20014;-72
2023/10/06 02:38:47;;;;;;;11.97;3.50;;;11.40;99.90;;;;;;5054923;28;20029;-73
2023/10/06 02:41:18;;;;;;;7.90;3.70;;;11.40;99.90;;;;;;5068996;28;20017;-73
2023/10/06 02:43:52;;;;;;;8.63;3.33;;;11.40;99.90;;;;;;5053574;28;20040;-73
2023/10/06 02:46:25;;;;;;;8.03;3.13;;;11.40;99.90;;;;;;5071919;28;20017;-72
2023/10/06 02:48:51;;;;;;;9.93;3.43;;;11.30;99.90;;;;;;5070285;28;20013;-73
2023/10/06 02:51:20;;;;;;;11.83;4.93;;;11.30;99.90;;;;;;5071240;28;20043;-73
2023/10/06 02:53:50;;;;;;;12.63;6.40;;;11.30;99.90;;;;;;5071987;28;20037;-73
2023/10/06 02:56:22;;;;;;;13.63;4.90;;;11.30;99.90;;;;;;5055230;28;20025;-73
2023/10/06 02:58:50;;;;;;;8.98;4.00;;;11.30;99.90;;;;;;5053969;28;20028;-72
2023/10/06 03:01:17;;;;;;;10.30;3.93;;;11.20;99.90;;;;;;5071442;28;20084;-72
2023/10/06 03:03:42;;;;;;;6.77;3.60;;;11.20;99.90;;;;;;5070573;28;20209;-72
2023/10/06 03:06:10;;;;;;;8.60;3.33;;;11.20;99.90;;;;;;5059624;28;20021;-73
2023/10/06 03:08:35;;;;;;;8.67;3.80;;;11.10;99.90;;;;;;5071929;28;20013;-72
2023/10/06 03:11:04;;;;;;;12.53;3.67;;;11.10;99.90;;;;;;5055773;28;20151;-73
2023/10/06 03:13:32;;;;;;;10.93;4.70;;;11.10;99.90;;;;;;5052450;28;20028;-73
2023/10/06 03:15:59;;;;;;;13.30;4.73;;;11.10;99.90;;;;;;5052646;28;20013;-74
2023/10/06 03:18:31;;;;;;;11.90;4.40;;;11.10;99.90;;;;;;5068304;28;20107;-72
2023/10/06 03:21:00;;;;;;;20.48;5.40;;;11.10;99.90;;;;;;5052416;28;20040;-73
2023/10/06 03:25:56;;;;;;;9.70;4.07;;;11.10;99.90;;;;;;5067534;28;20037;-72
2023/10/06 03:28:36;;;;;;;12.80;4.17;;;11.00;99.90;;;;;;5054698;28;20084;-73
2023/10/06 03:33:49;;;;;;;9.83;4.20;;;11.00;99.90;;;;;;5068786;28;20036;-72
2023/10/06 03:36:16;;;;;;;10.77;4.63;;;11.10;99.90;;;;;;5069717;28;20028;-72
2023/10/06 03:38:55;;;;;;;7.10;3.77;;;11.00;99.90;;;;;;5069271;28;20033;-72
2023/10/06 03:41:32;;;;;;;11.10;3.90;;;11.00;99.90;;;;;;5051521;28;20017;-72
2023/10/06 03:44:03;;;;;;;11.07;4.13;;;11.10;99.90;;;;;;5053834;28;20025;-73
2023/10/06 03:46:36;;;;;;;10.60;4.37;;;11.00;99.90;;;;;;5067682;28;20025;-73
2023/10/06 03:49:04;;;;;;;13.50;4.20;;;11.00;99.90;;;;;;5069304;28;20025;-72
2023/10/06 03:51:37;;;;;;;11.00;3.33;;;11.00;99.90;;;;;;5053207;28;20041;-72
2023/10/06 03:54:04;;;;;;;8.93;3.83;;;11.00;99.90;;;;;;5055626;28;20063;-73
2023/10/06 03:56:30;;;;;;;9.50;3.87;;;11.00;99.90;;;;;;5070965;28;20021;-72
2023/10/06 03:58:56;;;;;;;10.97;4.07;;;11.00;99.90;;;;;;5051886;28;20039;-72
2023/10/06 04:01:31;;;;;;;14.03;4.00;;;11.00;99.90;;;;;;5055403;28;20048;-72
2023/10/06 04:04:00;;;;;;;9.53;4.60;;;10.90;99.90;;;;;;5052173;28;20031;-73
2023/10/06 04:06:27;;;;;;;10.30;4.63;;;10.90;99.90;;;;;;5073814;28;20033;-73
2023/10/06 04:08:56;;;;;;;10.90;4.70;;;10.90;99.90;;;;;;5073878;28;20033;-72
2023/10/06 04:11:22;;;;;;;8.23;4.50;;;10.90;99.90;;;;;;5072994;28;20043;-72
2023/10/06 04:13:48;;;;;;;12.97;4.73;;;10.90;99.90;;;;;;5074415;28;20025;-72
2023/10/06 04:16:14;;;;;;;14.20;4.30;;;10.90;99.90;;;;;;5054918;28;20009;-72
2023/10/06 04:18:41;;;;;;;11.57;4.13;;;10.80;99.90;;;;;;5071920;28;20033;-73
2023/10/06 04:21:12;;;;;;;10.63;3.90;;;10.80;99.90;;;;;;5071444;28;20024;-72
2023/10/06 04:23:41;;;;;;;11.83;4.10;;;10.80;99.90;;;;;;5054573;28;20017;-72
2023/10/06 04:26:14;;;;;;;7.07;3.30;;;10.80;99.90;;;;;;5055662;28;20211;-72
2023/10/06 04:28:41;;;;;;;11.07;4.13;;;10.80;99.90;;;;;;5073069;28;20013;-73
2023/10/06 04:31:07;;;;;;;11.23;4.13;;;10.80;99.90;;;;;;5054194;28;20033;-73
2023/10/06 04:33:33;;;;;;;13.23;4.17;;;10.80;99.90;;;;;;5055220;28;20089;-73
2023/10/06 04:36:12;;;;;;;10.30;4.10;;;10.80;99.90;;;;;;5072462;28;20025;-72
2023/10/06 04:38:39;;;;;;;10.57;4.50;;;10.80;99.90;;;;;;5056807;28;20075;-76
2023/10/06 04:41:11;;;;;;;9.57;3.70;;;10.70;99.90;;;;;;5061572;28;20048;-73
2023/10/06 04:43:47;;;;;;;14.50;4.10;;;10.70;99.90;;;;;;5069806;28;20013;-73
2023/10/06 04:46:13;;;;;;;9.50;4.00;;;10.70;99.90;;;;;;5072322;28;20036;-73
2023/10/06 04:48:39;;;;;;;9.73;4.63;;;10.70;99.90;;;;;;5071923;28;20088;-73
2023/10/06 04:51:05;;;;;;;9.73;3.67;;;10.70;99.90;;;;;;5054322;28;20039;-72
2023/10/06 04:53:38;;;;;;;16.47;4.20;;;10.70;99.90;;;;;;5071891;28;20093;-74
2023/10/06 04:56:10;;;;;;;11.50;4.15;;;10.70;99.90;;;;;;5073243;28;20018;-75
2023/10/06 04:58:42;;;;;;;13.23;4.53;;;10.60;99.90;;;;;;5056039;28;20029;-73
2023/10/06 05:01:11;;;;;;;9.52;3.55;;;10.60;99.90;;;;;;5049716;28;20024;-73
2023/10/06 05:03:43;;;;;;;12.73;3.63;;;10.50;99.90;;;;;;5054722;28;20040;-73
2023/10/06 05:06:10;;;;;;;20.70;4.57;;;10.60;99.90;;;;;;5054235;28;20036;-75
2023/10/06 05:08:37;;;;;;;12.37;4.60;;;10.60;99.90;;;;;;5073223;28;20012;-74
2023/10/06 05:11:06;;;;;;;14.07;4.20;;;10.60;99.90;;;;;;5052042;28;20033;-73
2023/10/06 05:13:32;;;;;;;11.87;4.87;;;10.50;99.90;;;;;;5057095;28;20009;-73
2023/10/06 05:15:58;;;;;;;8.20;3.87;;;10.60;99.90;;;;;;5069336;28;20017;-73
2023/10/06 05:18:24;;;;;;;11.33;3.90;;;10.60;99.90;;;;;;5068130;28;20017;-73
2023/10/06 05:20:52;;;;;;;7.33;3.63;;;10.60;99.90;;;;;;5050634;28;20032;-73
2023/10/06 05:23:20;;;;;;;11.73;3.60;;;10.60;99.90;;;;;;5052488;28;20080;-73
2023/10/06 05:25:46;;;;;;;13.07;4.43;;;10.50;99.90;;;;;;5072193;28;20017;-75
2023/10/06 05:28:20;;;;;;;9.97;4.03;;;10.50;99.90;;;;;;5051840;28;20029;-72
2023/10/06 05:30:46;;;;;;;10.50;3.67;;;10.50;99.90;;;;;;5072104;28;20054;-72
2023/10/06 05:33:14;;;;;;;14.00;4.40;;;10.50;99.90;;;;;;5050825;28;20028;-73
2023/10/06 05:35:40;;;;;;;11.00;4.47;;;10.60;99.90;;;;;;5071592;28;20134;-74
2023/10/06 05:38:13;;;;;;;7.97;3.37;;;10.50;99.90;;;;;;5050675;28;20024;-72
2023/10/06 05:40:40;;;;;;;17.33;3.65;;;10.50;99.90;;;;;;5054223;28;20085;-72
2023/10/06 05:43:17;;;;;;;9.27;3.83;;;10.50;99.90;;;;;;5056825;28;20037;-72
2023/10/06 05:45:45;;;;;;;7.57;3.77;;;10.50;99.90;;;;;;5053442;28;20025;-73
2023/10/06 05:48:12;;;;;;;12.13;3.83;;;10.50;99.90;;;;;;5071841;28;20040;-73
2023/10/06 05:50:40;;;;;;;9.20;4.30;;;10.50;99.90;;;;;;5053039;28;20037;-73
2023/10/06 05:53:12;;;;;;;8.67;4.03;;;10.50;99.90;;;;;;5068411;28;20040;-73
2023/10/06 05:55:41;;;;;;;7.38;3.28;;;10.50;99.90;;;;;;5054701;28;20017;-74
2023/10/06 05:58:14;;;;;;;13.23;3.67;;;10.50;99.90;;;;;;5053807;28;20025;-76
2023/10/06 06:00:50;;;;;;;11.33;3.73;;;10.50;99.90;;;;;;5053721;28;20017;-73
2023/10/06 06:03:20;;;;;;;8.00;3.80;;;10.60;99.90;;;;;;5069009;28;20024;-74
2023/10/06 06:06:02;;;;;;;11.17;3.60;;;10.60;99.90;;;;;;5053538;28;20014;-73
2023/10/06 06:08:31;;;;;;;7.07;3.58;;;10.60;99.90;;;;;;5053842;28;20040;-73
2023/10/06 06:10:56;;;;;;;10.10;3.50;;;10.60;99.90;;;;;;5068664;28;21492;-72
2023/10/06 06:13:22;;;;;;;15.53;3.87;;;10.60;99.90;;;;;;5054300;28;20045;-72
2023/10/06 06:15:50;;;;;;;7.37;3.20;;;10.60;99.90;;;;;;5056472;28;20029;-73
2023/10/06 06:18:16;;;;;;;13.73;4.57;;;10.70;99.90;;;;;;5066406;28;20027;-73
2023/10/06 06:20:45;;;;;;;8.67;3.33;;;10.70;99.90;;;;;;5052478;28;20165;-73
2023/10/06 06:23:15;;;;;;;15.00;5.10;;;10.70;99.90;;;;;;5071351;28;20035;-73
2023/10/06 06:25:44;;;;;;;8.13;4.13;;;10.80;99.90;;;;;;5051521;28;20060;-75
2023/10/06 06:28:12;;;;;;;14.20;5.00;;;10.80;99.90;;;;;;5070832;28;20021;-75
2023/10/06 06:30:39;;;;;;;7.87;3.50;;;10.80;99.90;;;;;;5068047;28;20025;-74
2023/10/06 06:33:12;;;;;;;8.87;4.00;;;10.80;99.90;;;;;;5052360;28;20044;-74
2023/10/06 06:35:40;;;;;;;13.90;4.60;;;10.90;99.90;;;;;;5069918;28;20025;-75
2023/10/06 06:38:12;;;;;;;14.50;4.17;;;10.80;99.90;;;;;;5068854;28;20092;-76
2023/10/06 06:40:38;;;;;;;11.50;3.83;;;10.90;99.90;;;;;;5047651;28;20017;-75
2023/10/06 06:43:11;;;;;;;7.50;3.37;;;11.00;99.90;;;;;;5068385;28;20078;-75
2023/10/06 06:45:39;;;;;;;;;;;11.00;99.90;;;;;;5049542;28;20100;-75
2023/10/06 06:48:16;;;;;;;14.10;4.73;;;11.00;99.90;;;;;;5052635;28;19900;-74
2023/10/06 06:50:43;;;;;;;9.43;4.03;;;11.00;99.90;;;;;;5082088;23;20068;-74
2023/10/06 06:53:10;;;;;;;13.63;5.40;;;11.10;99.90;;;;;;5031636;28;20022;-75
2023/10/06 06:55:36;;;;;;;11.23;4.70;;;11.10;99.90;;;;;;5022897;28;20022;-74
2023/10/06 06:58:06;;;;;;;15.73;5.20;;;11.20;99.90;;;;;;5020854;28;20064;-75
2023/10/06 07:00:35;;;;;;;8.60;3.73;;;11.20;99.90;;;;;;5040044;28;20026;-74
2023/10/06 07:03:01;;;;;;;14.53;5.27;;;11.30;99.90;;;;;;5021530;28;20018;-74
2023/10/06 07:05:28;;;;;;;10.47;4.07;;;11.40;99.90;;;;;;5020897;28;20022;-73
2023/10/06 07:07:59;;;;;;;12.47;4.87;;;11.50;99.90;;;;;;5021300;28;20026;-74
2023/10/06 07:10:25;;;;;;;14.93;5.53;;;11.40;99.90;;;;;;5030741;28;20044;-74
2023/10/06 07:12:51;;;;;;;14.90;4.93;;;11.60;99.90;;;;;;5019683;28;20052;-74
2023/10/06 07:15:21;;;;;;;23.03;4.53;;;11.70;99.90;;;;;;5019119;28;21065;-75
2023/10/06 07:17:55;;;;;;;19.60;5.20;;;11.80;99.90;;;;;;5032592;28;20022;-74
2023/10/06 07:20:27;;;;;;;10.20;4.10;;;11.90;99.90;;;;;;5038997;28;20081;-74
2023/10/06 07:22:57;;;;;;;;;;;11.90;99.90;;;;;;5036552;28;20089;-75
2023/10/06 07:25:24;;;;;;;14.37;4.70;;;12.10;99.90;;;;;;5019779;28;19910;-74
2023/10/06 07:27:55;;;;;;;9.73;4.13;;;12.20;99.90;;;;;;5030222;28;20026;-75
2023/10/06 07:30:25;;;;;;;9.83;3.80;;;12.20;99.90;;;;;;5014383;28;20018;-74
2023/10/06 07:32:52;;;;;;;11.20;4.53;;;12.30;99.90;;;;;;5019601;28;20108;-74
2023/10/06 07:35:19;;;;;;;10.70;4.07;;;12.30;99.90;;;;;;5031693;28;20022;-73
2023/10/06 07:37:47;;;;;;;11.33;3.63;;;12.50;99.90;;;;;;5011419;28;20049;-75
2023/10/06 07:40:18;;;;;;;9.27;4.13;;;12.50;99.90;;;;;;5018231;28;20041;-74
2023/10/06 07:42:55;;;;;;;9.53;3.70;;;12.60;99.90;;;;;;5030329;28;20041;-74
2023/10/06 07:45:23;;;;;;;11.83;3.83;;;12.70;99.90;;;;;;5029883;28;20060;-74
2023/10/06 07:47:49;;;;;;;18.70;3.50;;;12.80;99.90;;;;;;5036070;28;20029;-74
2023/10/06 07:50:16;;;;;;;13.02;4.68;;;12.70;99.90;;;;;;5018529;28;20048;-75
2023/10/06 07:52:46;;;;;;;10.20;4.80;;;12.80;99.90;;;;;;5029566;28;20049;-74
2023/10/06 07:55:12;;;;;;;12.80;3.77;;;12.90;99.90;;;;;;5030058;28;20073;-75
2023/10/06 07:57:41;;;;;;;13.03;4.03;;;13.00;99.90;;;;;;5036363;28;20056;-75
2023/10/06 08:00:30;;;;;;;9.45;3.33;;;13.00;99.90;;;;;;5017475;28;20026;-74
2023/10/06 08:03:02;;;;;;;11.10;3.80;;;13.00;99.90;;;;;;5012817;28;20034;-74
2023/10/06 08:05:29;;;;;;;11.15;3.55;;;13.10;99.90;;;;;;5034354;28;20417;-73
2023/10/06 08:07:55;;;;;;;12.18;4.30;;;13.10;99.90;;;;;;5019392;28;20030;-74
2023/10/06 08:10:30;;;;;;;10.02;4.30;;;13.10;99.90;;;;;;5035402;28;20022;-74
2023/10/06 08:13:01;;;;;;;10.88;3.90;;;13.10;99.90;;;;;;5029867;28;20097;-74
2023/10/06 08:15:27;;;;;;;14.05;4.07;;;13.10;99.90;;;;;;5017289;28;20018;-74
2023/10/06 08:18:01;;;;;;;10.10;4.33;;;13.20;99.90;;;;;;5030981;28;20044;-74
2023/10/06 08:20:27;;;;;;;9.43;4.25;;;13.10;99.90;;;;;;5017617;28;20021;-74
2023/10/06 08:22:57;;;;;;;7.85;3.60;;;13.10;99.90;;;;;;5016831;28;20018;-75
2023/10/06 08:25:24;;;;;;;6.82;3.08;;;13.20;99.90;;;;;;5017538;28;20008;-74
2023/10/06 08:27:50;;;;;;;11.55;3.15;;;13.20;99.90;;;;;;5034789;28;20018;-76
2023/10/06 08:30:17;;;;;;;14.27;3.95;;;13.20;99.90;;;;;;5016398;28;20018;-74
2023/10/06 08:32:49;;;;;;;8.48;2.72;;;13.30;99.90;;;;;;5035410;28;20548;-74
2023/10/06 08:35:15;;;;;;;;;;;13.30;99.90;;;;;;5029794;28;20025;-74
2023/10/06 08:37:45;;;;;;;10.38;2.95;;;13.30;99.90;;;;;;5015689;28;20085;-73
2023/10/06 08:40:16;;;;;;;8.77;2.97;;;13.40;99.90;;;;;;5037211;28;20048;-74
2023/10/06 08:42:56;;;;;;;19.05;2.58;;;13.40;99.90;;;;;;5032329;28;20045;-74
2023/10/06 08:45:31;;;;;;;7.43;2.72;;;13.50;99.90;;;;;;5027664;28;20041;-74
2023/10/06 08:48:09;;;;;;;9.05;2.95;;;13.60;99.90;;;;;;5007791;28;20022;-74
2023/10/06 08:50:37;;;;;;;7.43;2.25;;;13.60;99.90;;;;;;5032437;28;20041;-74
2023/10/06 08:53:05;;;;;;;5.18;2.20;;;13.70;99.90;;;;;;5033191;28;20025;-74
2023/10/06 08:55:32;;;;;;;5.90;2.13;;;13.80;99.90;;;;;;5032980;28;20040;-75
2023/10/06 08:57:58;;;;;;;8.88;2.80;;;13.70;99.90;;;;;;5010771;28;20041;-74
2023/10/06 09:00:25;;;;;;;8.18;2.30;;;13.90;99.90;;;;;;5015561;28;20026;-74
2023/10/06 09:02:53;;;;;;;11.00;2.30;;;13.90;99.90;;;;;;5016533;28;20014;-74
2023/10/06 09:05:22;;;;;;;7.07;2.28;;;13.90;99.90;;;;;;5016639;28;20032;-74
2023/10/06 09:08:04;;;;;;;5.50;2.28;;;13.90;99.90;;;;;;5016052;28;20034;-74
2023/10/06 09:10:32;;;;;;;10.05;2.70;;;14.00;99.90;;;;;;5027871;28;20034;-73
2023/10/06 09:13:02;;;;;;;7.28;2.40;;;14.10;99.90;;;;;;5031957;28;20065;-74
2023/10/06 09:15:28;;;;;;;8.00;2.33;;;14.20;99.90;;;;;;5026005;28;20052;-74
2023/10/06 09:17:56;;;;;;;5.10;2.20;;;14.20;99.90;;;;;;5031866;28;20018;-75
2023/10/06 09:20:32;;;;;;;9.52;1.92;;;14.10;99.90;;;;;;5031488;28;20041;-74
2023/10/06 09:22:59;;;;;;;5.15;1.98;;;14.30;99.90;;;;;;5018652;28;20129;-74
2023/10/06 09:25:29;;;;;;;8.43;2.20;;;14.40;99.90;;;;;;5018010;28;20029;-73
2023/10/06 09:28:03;;;;;;;10.80;2.95;;;14.50;99.90;;;;;;5032296;28;20057;-74
2023/10/06 09:30:50;;;;;;;10.68;2.97;;;14.60;99.90;;;;;;5018534;28;20030;-75
2023/10/06 09:33:16;;;;;;;7.85;2.30;;;14.70;99.90;;;;;;5032189;28;20030;-74
2023/10/06 09:35:43;;;;;;;9.70;2.28;;;14.70;99.90;;;;;;5019969;28;20044;-74
2023/10/06 09:38:17;;;;;;;10.70;2.38;;;14.80;99.90;;;;;;5037469;28;20045;-74
2023/10/06 09:40:46;;;;;;;8.15;2.50;;;14.90;99.90;;;;;;5031223;28;20049;-74
2023/10/06 09:43:19;;;;;;;9.25;2.42;;;15.00;99.90;;;;;;5035094;28;20101;-74
2023/10/06 09:45:48;;;;;;;11.00;2.38;;;14.90;99.90;;;;;;5036572;28;20018;-74
2023/10/06 09:48:17;;;;;;;8.77;2.45;;;15.10;99.90;;;;;;5031184;28;20025;-74
2023/10/06 09:50:46;;;;;;;8.20;2.83;;;15.10;99.90;;;;;;5030205;28;20041;-75
2023/10/06 09:53:12;;;;;;;8.05;2.53;;;15.20;99.90;;;;;;5035936;28;20041;-75
2023/10/06 09:55:41;;;;;;;10.25;2.60;;;15.20;99.90;;;;;;5017473;28;20026;-74
2023/10/06 09:58:08;;;;;;;6.63;2.10;;;15.30;99.90;;;;;;5036130;28;20010;-74
2023/10/06 10:00:39;;;;;;;5.40;2.22;;;15.40;99.90;;;;;;5014294;28;20029;-75
2023/10/06 10:03:06;;;;;;;4.22;1.75;;;15.50;99.90;;;;;;5028773;28;20037;-74
2023/10/06 10:05:33;;;;;;;8.57;2.20;;;15.60;99.90;;;;;;5030312;28;20115;-74
2023/10/06 10:07:59;;;;;;;8.07;3.00;;;15.70;99.90;;;;;;5030386;28;20089;-74
2023/10/06 10:10:27;;;;;;;7.43;2.65;;;15.70;99.90;;;;;;5030290;28;21129;-74
2023/10/06 10:13:31;;;;;;;10.73;2.17;;;15.80;99.90;;;;;;5031296;28;20109;-74
2023/10/06 10:16:15;;;;;;;8.90;2.50;;;16.00;99.90;;;;;;5029302;28;20022;-74
2023/10/06 10:18:49;;;;;;;7.53;2.25;;;16.00;99.90;;;;;;5036331;28;20018;-74
2023/10/06 10:21:15;;;;;;;7.40;2.10;;;16.10;99.90;;;;;;5031247;28;20029;-75
2023/10/06 10:23:43;;;;;;;7.13;2.70;;;16.00;99.90;;;;;;5035547;28;20028;-74
2023/10/06 10:26:27;;;;;;;13.25;2.45;;;16.10;99.90;;;;;;5018375;28;20100;-74
2023/10/06 10:29:17;;;;;;;7.03;2.22;;;16.10;99.90;;;;;;5014031;28;20029;-74
2023/10/06 10:31:47;;;;;;;5.07;2.00;;;16.20;99.90;;;;;;5037203;28;20033;-74
2023/10/06 10:34:33;;;;;;;10.52;2.30;;;16.30;99.90;;;;;;5031295;28;20026;-75
2023/10/06 10:37:05;;;;;;;5.72;1.80;;;16.40;99.90;;;;;;5018226;28;20043;-74
2023/10/06 10:39:50;;;;;;;8.77;2.88;;;16.40;99.90;;;;;;5032082;28;20210;-74
2023/10/06 10:42:36;;;;;;;11.10;2.50;;;16.50;99.90;;;;;;5032109;28;20051;-74
2023/10/06 10:45:30;;;;;;;9.98;2.65;;;16.50;99.90;;;;;;5019945;28;20037;-74
2023/10/06 10:47:58;;;;;;;23.73;3.92;;;16.50;99.90;;;;;;5028533;28;20038;-74
2023/10/06 10:50:53;;;;;;;10.32;2.45;;;16.50;99.90;;;;;;5017950;28;20036;-74
2023/10/06 10:53:22;;;;;;;9.15;2.35;;;16.60;99.90;;;;;;5027554;28;20072;-74
2023/10/06 10:55:48;;;;;;;15.10;2.22;;;16.70;99.90;;;;;;5034923;28;20038;-74
2023/10/06 10:58:47;;;;;;;8.90;2.58;;;16.80;99.90;;;;;;5018611;28;20039;-74
2023/10/06 11:01:42;;;;;;;8.98;2.30;;;16.90;99.90;;;;;;5037702;28;20033;-74
2023/10/06 11:04:15;;;;;;;9.65;2.42;;;16.90;99.90;;;;;;5030748;28;20025;-73
2023/10/06 11:06:45;;;;;;;11.13;3.00;;;17.00;99.90;;;;;;5035516;28;20018;-74
2023/10/06 11:09:30;;;;;;;9.48;2.83;;;17.00;99.90;;;;;;5035331;28;20025;-74
2023/10/06 11:12:06;;;;;;;11.48;2.70;;;17.00;99.90;;;;;;5029554;28;20152;-74
2023/10/06 11:14:40;;;;;;;8.57;2.55;;;17.20;99.90;;;;;;5036300;28;20030;-75
2023/10/06 11:17:07;;;;;;;6.82;1.92;;;17.20;99.90;;;;;;5034906;28;20060;-75
2023/10/06 11:19:34;;;;;;;10.88;2.67;;;17.20;99.90;;;;;;5030356;28;20030;-74
2023/10/06 11:22:09;;;;;;;8.25;2.63;;;17.30;99.90;;;;;;5019969;28;20137;-74
2023/10/06 11:24:35;;;;;;;10.75;2.40;;;17.30;99.90;;;;;;5029163;28;20111;-74
2023/10/06 11:27:21;;;;;;;5.78;2.28;;;17.30;99.90;;;;;;5033250;28;20025;-75
2023/10/06 11:29:48;;;;;;;8.15;2.10;;;17.40;99.90;;;;;;5031123;28;20030;-74
2023/10/06 11:32:14;;;;;;;7.10;2.08;;;17.50;99.90;;;;;;5033947;28;20049;-74
2023/10/06 11:34:48;;;;;;;8.32;2.53;;;17.50;99.90;;;;;;5018544;28;20010;-74
2023/10/06 11:37:14;;;;;;;10.18;2.15;;;17.60;99.90;;;;;;5013022;28;20034;-75
2023/10/06 11:39:40;;;;;;;8.68;2.00;;;17.60;99.90;;;;;;5018564;28;20123;-78
2023/10/06 11:42:26;;;;;;;9.30;2.00;;;17.70;99.90;;;;;;5025657;28;20048;-74
2023/10/06 11:44:52;;;;;;;6.78;1.77;;;17.80;99.90;;;;;;5020250;28;20033;-79
2023/10/06 11:47:28;;;;;;;8.07;2.40;;;17.90;99.90;;;;;;5016027;28;20125;-75
2023/10/06 11:50:03;;;;;;;16.48;2.80;;;18.00;99.90;;;;;;5015106;28;20636;-79
2023/10/06 11:52:32;;;;;;;7.13;2.00;;;18.10;99.90;;;;;;5001598;28;20038;-82
2023/10/06 11:55:08;;;;;;;5.70;2.00;;;18.20;99.90;;;;;;5011352;28;20076;-78
2023/10/06 11:57:51;;;;;;;8.70;2.13;;;18.30;99.90;;;;;;5017384;28;20025;-76
2023/10/06 12:00:20;;;;;;;6.30;1.90;;;18.30;99.90;;;;;;5003626;28;20034;-76
2023/10/06 12:02:50;;;;;;;3.85;1.88;;;18.40;99.90;;;;;;4999923;28;20029;-79
2023/10/06 12:05:24;;;;;;;7.97;1.85;;;18.40;99.90;;;;;;5011379;28;20026;-75
2023/10/06 12:07:50;;;;;;;14.73;2.30;;;18.40;99.90;;;;;;5020185;28;20033;-77
2023/10/06 12:10:25;;;;;;;5.50;1.70;;;18.50;99.90;;;;;;5032475;28;20110;-74
2023/10/06 12:12:51;;;;;;;6.38;1.90;;;18.50;99.90;;;;;;5017880;28;20086;-81
2023/10/06 12:15:20;;;;;;;11.13;2.50;;;18.50;99.90;;;;;;4997410;28;20054;-80
2023/10/06 12:17:46;;;;;;;5.15;1.60;;;18.50;99.90;;;;;;5002980;28;20040;-80
2023/10/06 12:20:16;;;;;;;8.18;2.00;;;18.50;99.90;;;;;;5021973;28;20105;-75
2023/10/06 12:22:42;;;;;;;10.23;2.40;;;18.50;99.90;;;;;;5003430;28;20034;-78
2023/10/06 12:25:11;;;;;;;5.72;2.03;;;18.50;99.90;;;;;;5001440;28;20030;-81
2023/10/06 12:27:37;;;;;;;10.40;2.28;;;18.50;99.90;;;;;;5011952;28;20030;-82
2023/10/06 12:30:06;;;;;;;7.35;2.72;;;18.60;99.90;;;;;;4989063;28;20095;-83
2023/10/06 12:32:37;;;;;;;6.68;1.88;;;18.60;99.90;;;;;;5008626;28;20121;-79
2023/10/06 12:35:07;;;;;;;9.20;3.05;;;18.80;99.90;;;;;;5015567;28;20025;-81
2023/10/06 12:37:34;;;;;;;6.25;1.92;;;18.80;99.90;;;;;;4995909;28;20084;-83
2023/10/06 12:40:00;;;;;;;8.68;2.40;;;18.90;99.90;;;;;;5006605;28;20038;-82
2023/10/06 12:42:26;;;;;;;9.07;3.08;;;19.00;99.90;;;;;;5006063;28;20034;-80
2023/10/06 12:44:52;;;;;;;5.38;2.13;;;19.00;99.90;;;;;;5012323;28;20034;-84
2023/10/06 12:47:18;;;;;;;10.07;2.67;;;19.10;99.90;;;;;;4994909;28;20040;-81
2023/10/06 12:49:45;;;;;;;9.18;2.88;;;19.20;99.90;;;;;;5011626;28;20033;-78
2023/10/06 12:52:13;;;;;;;11.13;1.95;;;19.30;99.90;;;;;;5010816;28;20042;-80
2023/10/06 12:54:44;;;;;;;10.43;2.70;;;19.40;99.90;;;;;;5011718;28;20022;-81
2023/10/06 12:57:09;;;;;;;10.88;2.90;;;19.40;99.90;;;;;;5012835;28;20938;-81
2023/10/06 12:59:35;;;;;;;9.05;2.92;;;19.50;99.90;;;;;;5011205;28;20034;-78
2023/10/06 13:02:04;;;;;;;7.18;2.25;;;19.50;99.90;;;;;;5012371;28;21542;-83
2023/10/06 13:04:30;;;;;;;8.32;1.80;;;19.50;99.90;;;;;;4993901;28;20034;-81
2023/10/06 13:07:03;;;;;;;7.57;3.00;;;19.40;99.90;;;;;;5005250;28;20112;-84
2023/10/06 13:09:33;;;;;;;5.15;1.85;;;19.60;99.90;;;;;;5011290;28;20049;-84